createdAt,value
2018-06-15T00:00:39.197Z,99045.14
2018-06-15T00:03:08.645Z,99048.06
2018-06-15T00:05:38.064Z,99046.33
2018-06-15T00:08:07.474Z,99042.25
2018-06-15T00:10:36.848Z,99045.70
2018-06-15T00:13:06.265Z,99044.61
2018-06-15T00:15:35.806Z,99045.34
2018-06-15T00:18:05.469Z,99047.63
2018-06-15T00:20:34.855Z,99047.40
2018-06-15T00:23:04.401Z,99047.30
2018-06-15T00:25:34.032Z,99013.38
2018-06-15T00:28:03.592Z,99039.69
2018-06-15T00:30:33.059Z,99045.70
2018-06-15T00:33:02.505Z,99039.77
2018-06-15T00:35:32.111Z,99043.64
2018-06-15T00:38:01.718Z,99046.67
2018-06-15T00:40:31.336Z,99037.11
2018-06-15T00:43:00.938Z,99039.66
2018-06-15T00:45:30.732Z,99038.23
2018-06-15T00:48:00.450Z,99042.84
2018-06-15T00:50:29.884Z,99046.93
2018-06-15T00:52:59.620Z,99028.77
2018-06-15T00:55:29.185Z,99042.42
2018-06-15T00:57:58.941Z,99035.41
2018-06-15T01:00:28.929Z,99043.02
2018-06-15T01:02:59.817Z,99044.41
2018-06-15T01:05:29.480Z,99042.78
2018-06-15T01:07:58.945Z,99039.42
2018-06-15T01:10:28.808Z,99038.23
2018-06-15T01:12:58.248Z,99035.98
2018-06-15T01:15:27.848Z,99028.41
2018-06-15T01:17:57.372Z,99039.03
2018-06-15T01:20:26.804Z,99041.69
2018-06-15T01:22:56.206Z,99030.47
2018-06-15T01:25:25.627Z,99042.42
2018-06-15T01:27:55.117Z,99043.08
2018-06-15T01:30:24.565Z,99045.27
2018-06-15T01:32:53.922Z,99047.27
2018-06-15T01:35:25.045Z,99037.97
2018-06-15T01:37:54.471Z,99039.16
2018-06-15T01:40:24.004Z,99033.38
2018-06-15T01:42:53.380Z,99033.36
2018-06-15T01:45:22.919Z,99027.18
2018-06-15T01:47:52.364Z,99032.39
2018-06-15T01:50:26.124Z,99034.58
2018-06-15T01:52:55.499Z,99031.93
2018-06-15T01:55:28.941Z,99038.56
2018-06-15T01:57:58.393Z,99034.58
2018-06-15T02:00:29.768Z,99026.61
2018-06-15T02:02:59.276Z,99035.81
2018-06-15T02:05:30.084Z,99033.25
2018-06-15T02:07:59.457Z,99035.81
2018-06-15T02:10:28.948Z,99038.86
2018-06-15T02:12:58.352Z,99037.80
2018-06-15T02:15:30.169Z,99038.23
2018-06-15T02:17:59.524Z,99037.94
2018-06-15T02:20:28.925Z,99038.59
2018-06-15T02:22:58.473Z,99038.86
2018-06-15T02:25:27.923Z,99033.82
2018-06-15T02:27:57.344Z,99040.69
2018-06-15T02:30:30.213Z,99038.03
2018-06-15T02:32:59.696Z,99043.61
2018-06-15T02:35:29.280Z,99039.27
2018-06-15T02:37:58.893Z,99046.00
2018-06-15T02:40:28.249Z,99042.98
2018-06-15T02:42:58.208Z,99033.55
2018-06-15T02:45:27.747Z,99039.89
2018-06-15T02:47:57.313Z,99038.77
2018-06-15T02:50:31.435Z,99044.14
2018-06-15T02:53:00.840Z,99040.89
2018-06-15T02:55:30.327Z,99039.03
2018-06-15T02:57:59.696Z,99040.82
2018-06-15T03:00:29.408Z,99042.72
2018-06-15T03:02:58.753Z,99035.98
2018-06-15T03:05:28.264Z,99047.36
2018-06-15T03:07:57.693Z,99035.22
2018-06-15T03:10:27.489Z,99052.67
2018-06-15T03:12:56.864Z,99049.22
2018-06-15T03:15:26.277Z,99051.38
2018-06-15T03:17:55.640Z,99051.28
2018-06-15T03:20:29.001Z,99054.63
2018-06-15T03:22:59.260Z,99051.34
2018-06-15T03:25:28.905Z,98647.44
2018-06-15T03:27:58.287Z,99051.34
2018-06-15T03:30:28.304Z,99048.95
2018-06-15T03:32:57.653Z,99048.66
2018-06-15T03:35:27.245Z,99050.55
2018-06-15T03:37:56.868Z,99058.64
2018-06-15T03:40:29.388Z,99059.97
2018-06-15T03:42:58.853Z,99052.73
2018-06-15T03:45:28.225Z,99061.41
2018-06-15T03:47:58.364Z,99066.55
2018-06-15T03:50:29.112Z,99062.47
2018-06-15T03:52:58.529Z,99062.83
2018-06-15T03:55:28.172Z,99068.31
2018-06-15T03:57:57.720Z,99061.30
2018-06-15T04:00:27.085Z,99061.88
2018-06-15T04:02:56.686Z,99057.22
2018-06-15T04:05:26.070Z,99058.35
2018-06-15T04:07:55.404Z,99062.50
2018-06-15T04:10:30.321Z,99064.99
2018-06-15T04:12:59.694Z,99071.17
2018-06-15T04:15:29.233Z,99066.92
2018-06-15T04:18:06.160Z,99069.70
2018-06-15T04:20:37.052Z,99076.75
2018-06-15T04:23:06.482Z,99075.78
2018-06-15T04:25:35.849Z,99079.53
2018-06-15T04:28:05.304Z,99076.31
2018-06-15T04:30:34.677Z,99078.11
2018-06-15T04:33:04.224Z,99074.39
2018-06-15T04:35:33.820Z,99074.82
2018-06-15T04:38:03.207Z,99080.03
2018-06-15T04:40:32.729Z,99082.09
2018-06-15T04:43:02.106Z,99090.92
2018-06-15T04:45:32.130Z,99080.92
2018-06-15T04:48:01.477Z,99084.38
2018-06-15T04:50:32.721Z,99081.66
2018-06-15T04:53:02.260Z,99092.25
2018-06-15T04:55:31.599Z,99087.07
2018-06-15T04:58:00.955Z,99097.97
2018-06-15T05:00:30.520Z,99094.21
2018-06-15T05:03:00.350Z,99091.19
2018-06-15T05:05:30.682Z,99088.46
2018-06-15T05:08:00.035Z,99090.12
2018-06-15T05:10:30.206Z,99087.66
2018-06-15T05:12:59.812Z,99087.46
2018-06-15T05:15:29.408Z,99082.07
2018-06-15T05:17:58.769Z,99088.55
2018-06-15T05:20:28.312Z,99086.78
2018-06-15T05:22:57.948Z,99087.31
2018-06-15T05:25:28.639Z,99088.28
2018-06-15T05:27:57.992Z,99087.85
2018-06-15T05:30:28.932Z,99106.16
2018-06-15T05:32:58.376Z,99095.78
2018-06-15T05:35:27.752Z,99100.67
2018-06-15T05:37:57.120Z,99094.03
2018-06-15T05:40:26.560Z,99096.41
2018-06-15T05:42:56.009Z,99093.59
2018-06-15T05:45:27.112Z,99094.27
2018-06-15T05:47:56.781Z,99095.97
2018-06-15T05:50:26.133Z,99094.90
2018-06-15T05:52:55.729Z,99097.17
2018-06-15T05:55:25.124Z,99087.26
2018-06-15T05:57:54.739Z,99089.02
2018-06-15T06:00:24.140Z,99093.35
2018-06-15T06:02:53.506Z,99092.20
2018-06-15T06:05:24.509Z,99099.55
2018-06-15T06:07:53.932Z,99105.90
2018-06-15T06:10:23.744Z,98782.11
2018-06-15T06:12:53.276Z,99105.74
2018-06-15T06:15:28.873Z,99098.89
2018-06-15T06:17:58.526Z,99105.19
2018-06-15T06:20:29.342Z,99103.40
2018-06-15T06:22:58.704Z,99116.34
2018-06-15T06:25:28.094Z,99114.19
2018-06-15T06:27:57.600Z,99118.39
2018-06-15T06:30:27.177Z,99112.76
2018-06-15T06:32:56.687Z,99109.58
2018-06-15T06:35:26.053Z,99109.22
2018-06-15T06:37:55.746Z,99116.33
2018-06-15T06:40:25.332Z,99113.28
2018-06-15T06:42:54.954Z,99111.63
2018-06-15T06:45:27.136Z,99121.09
2018-06-15T06:47:56.507Z,99111.89
2018-06-15T06:50:29.767Z,99117.93
2018-06-15T06:52:59.627Z,99109.38
2018-06-15T06:55:31.384Z,99117.46
2018-06-15T06:58:00.876Z,99107.78
2018-06-15T07:00:30.240Z,99107.33
2018-06-15T07:02:59.741Z,99106.31
2018-06-15T07:05:29.521Z,99109.42
2018-06-15T07:07:58.871Z,99108.34
2018-06-15T07:10:34.307Z,99107.28
2018-06-15T07:13:03.725Z,99102.31
2018-06-15T07:15:33.129Z,99095.80
2018-06-15T07:18:02.488Z,99099.14
2018-06-15T07:20:32.211Z,99102.20
2018-06-15T07:23:02.761Z,99096.77
2018-06-15T07:25:32.165Z,99100.88
2018-06-15T07:28:01.693Z,99099.33
2018-06-15T07:30:32.288Z,99100.05
2018-06-15T07:33:01.830Z,99089.14
2018-06-15T07:35:31.437Z,99096.84
2018-06-15T07:38:01.054Z,99085.97
2018-06-15T07:40:30.654Z,99099.39
2018-06-15T07:43:00.075Z,99087.34
2018-06-15T07:45:29.577Z,99100.55
2018-06-15T07:47:59.162Z,99092.95
2018-06-15T07:50:28.535Z,99100.59
2018-06-15T07:52:57.904Z,99092.48
2018-06-15T07:55:27.319Z,99095.40
2018-06-15T07:57:56.874Z,99103.03
2018-06-15T08:00:26.259Z,99096.95
2018-06-15T08:02:55.620Z,99103.50
2018-06-15T08:05:25.172Z,99105.91
2018-06-15T08:07:54.849Z,99101.84
2018-06-15T08:10:24.234Z,99096.30
2018-06-15T08:12:53.656Z,99100.14
2018-06-15T08:15:23.059Z,98943.05
2018-06-15T08:17:52.579Z,99097.81
2018-06-15T08:20:22.306Z,99093.44
2018-06-15T08:22:51.909Z,99090.29
2018-06-15T08:25:21.264Z,99095.99
2018-06-15T08:27:50.712Z,99093.58
2018-06-15T08:30:20.446Z,99093.11
2018-06-15T08:32:50.011Z,99096.16
2018-06-15T08:35:19.561Z,99095.30
2018-06-15T08:37:48.961Z,99092.14
2018-06-15T08:40:18.817Z,99090.70
2018-06-15T08:42:48.393Z,99092.03
2018-06-15T08:45:18.137Z,99090.09
2018-06-15T08:47:47.616Z,99092.28
2018-06-15T08:50:17.103Z,99033.00
2018-06-15T08:52:46.537Z,99092.40
2018-06-15T08:55:16.501Z,99092.05
2018-06-15T08:57:46.049Z,99092.41
2018-06-15T09:00:15.656Z,99092.28
2018-06-15T09:02:45.263Z,99089.11
2018-06-15T09:05:15.050Z,99088.98
2018-06-15T09:07:44.401Z,99090.34
2018-06-15T09:10:14.312Z,99096.89
2018-06-15T09:12:43.651Z,99091.67
2018-06-15T09:15:13.165Z,99089.59
2018-06-15T09:17:42.517Z,99095.05
2018-06-15T09:20:12.488Z,99085.95
2018-06-15T09:22:44.535Z,99091.41
2018-06-15T09:25:17.540Z,99099.08
2018-06-15T09:27:50.152Z,99095.19
2018-06-15T09:30:19.762Z,99088.64
2018-06-15T09:32:49.800Z,99090.34
2018-06-15T09:35:20.109Z,99088.64
2018-06-15T09:37:49.648Z,99092.41
2018-06-15T09:40:22.271Z,99062.19
2018-06-15T09:42:56.148Z,99083.19
2018-06-15T09:45:25.505Z,99092.15
2018-06-15T09:47:54.959Z,99094.91
2018-06-15T09:50:26.527Z,99089.06
2018-06-15T09:52:57.400Z,99091.34
2018-06-15T09:55:27.021Z,99091.80
2018-06-15T09:57:56.395Z,99094.20
2018-06-15T10:00:30.919Z,99092.75
2018-06-15T10:03:00.271Z,99098.09
2018-06-15T10:05:29.736Z,99090.00
2018-06-15T10:07:59.341Z,99096.99
2018-06-15T10:10:32.290Z,99089.79
2018-06-15T10:13:02.319Z,99091.10
2018-06-15T10:15:31.653Z,99091.28
2018-06-15T10:18:01.166Z,99089.25
2018-06-15T10:20:30.796Z,99085.81
2018-06-15T10:23:00.985Z,99093.41
2018-06-15T10:25:30.647Z,99088.75
2018-06-15T10:28:00.212Z,99086.47
2018-06-15T10:30:29.595Z,99087.53
2018-06-15T10:32:59.131Z,99086.69
2018-06-15T10:35:28.732Z,99081.50
2018-06-15T10:37:58.952Z,99076.19
2018-06-15T10:40:28.352Z,99092.21
2018-06-15T10:42:57.872Z,99100.73
2018-06-15T10:45:27.425Z,99082.89
2018-06-15T10:47:57.032Z,99089.48
2018-06-15T10:50:26.780Z,98936.70
2018-06-15T10:52:56.816Z,99081.86
2018-06-15T10:55:26.182Z,99094.09
2018-06-15T10:57:55.518Z,99082.11
2018-06-15T11:00:25.035Z,99081.92
2018-06-15T11:02:54.671Z,99085.52
2018-06-15T11:05:24.017Z,99080.17
2018-06-15T11:07:53.369Z,99085.97
2018-06-15T11:10:23.079Z,99076.98
2018-06-15T11:12:52.592Z,99074.95
2018-06-15T11:15:22.695Z,99013.53
2018-06-15T11:17:52.392Z,99065.23
2018-06-15T11:20:21.810Z,99081.75
2018-06-15T11:22:51.148Z,99067.94
2018-06-15T11:25:20.666Z,99076.75
2018-06-15T11:27:50.447Z,99077.52
2018-06-15T11:30:20.076Z,99070.52
2018-06-15T11:32:49.414Z,99063.86
2018-06-15T11:35:19.072Z,99060.92
2018-06-15T11:37:48.674Z,99037.94
2018-06-15T11:40:18.101Z,99059.64
2018-06-15T11:42:47.540Z,99066.61
2018-06-15T11:45:16.961Z,99062.31
2018-06-15T11:47:46.378Z,99060.47
2018-06-15T11:50:15.789Z,99055.37
2018-06-15T11:52:45.129Z,99062.78
2018-06-15T11:55:14.688Z,99052.27
2018-06-15T11:57:44.330Z,99056.58
2018-06-15T12:00:15.519Z,99059.73
2018-06-15T12:02:45.041Z,99052.27
2018-06-15T12:05:14.648Z,99053.95
2018-06-15T12:07:44.560Z,99055.00
2018-06-15T12:10:14.147Z,99054.95
2018-06-15T12:12:44.243Z,99057.20
2018-06-15T12:15:13.784Z,99054.81
2018-06-15T12:17:43.294Z,99050.23
2018-06-15T12:20:12.903Z,99058.22
2018-06-15T12:22:42.249Z,99056.09
2018-06-15T12:25:12.559Z,99047.34
2018-06-15T12:27:41.969Z,99049.57
2018-06-15T12:30:11.564Z,99053.69
2018-06-15T12:32:41.004Z,99051.52
2018-06-15T12:35:10.571Z,99053.05
2018-06-15T12:37:39.800Z,99049.37
2018-06-15T12:40:09.332Z,99053.00
2018-06-15T12:42:38.689Z,99051.45
2018-06-15T12:45:08.371Z,99054.73
2018-06-15T12:47:37.708Z,99054.73
2018-06-15T12:50:07.299Z,99061.41
2018-06-15T12:52:36.680Z,99052.22
2018-06-15T12:55:06.471Z,99054.93
2018-06-15T12:57:36.061Z,99056.07
2018-06-15T13:00:05.852Z,99052.91
2018-06-15T13:02:35.185Z,99057.45
2018-06-15T13:05:04.653Z,99051.36
2018-06-15T13:07:34.217Z,99058.14
2018-06-15T13:10:03.580Z,99049.07
2018-06-15T13:12:33.165Z,99044.02
2018-06-15T13:15:02.765Z,99045.57
2018-06-15T13:17:32.932Z,99040.22
2018-06-15T13:20:02.593Z,99036.71
2018-06-15T13:22:32.369Z,99038.22
2018-06-15T13:25:01.704Z,99031.65
2018-06-15T13:27:31.101Z,99036.28
2018-06-15T13:30:00.681Z,99030.55
2018-06-15T13:32:30.292Z,99032.39
2018-06-15T13:34:59.876Z,99034.20
2018-06-15T13:37:29.199Z,99027.03
2018-06-15T13:39:58.534Z,99025.81
2018-06-15T13:42:28.117Z,99026.66
2018-06-15T13:44:57.732Z,99019.70
2018-06-15T13:47:27.083Z,99015.09
2018-06-15T13:49:56.964Z,99019.73
2018-06-15T13:52:26.381Z,99009.66
2018-06-15T13:54:55.849Z,98990.77
2018-06-15T13:57:25.468Z,99012.83
2018-06-15T13:59:55.254Z,99014.97
2018-06-15T14:02:24.684Z,99005.92
2018-06-15T14:04:54.166Z,99008.12
2018-06-15T14:07:23.796Z,99013.04
2018-06-15T14:09:53.141Z,99005.67
2018-06-15T14:12:22.756Z,99013.64
2018-06-15T14:14:52.110Z,99009.72
2018-06-15T14:17:21.707Z,99008.91
2018-06-15T14:19:51.343Z,99006.78
2018-06-15T14:22:20.980Z,99002.66
2018-06-15T14:24:50.308Z,99003.01
2018-06-15T14:27:19.839Z,99002.98
2018-06-15T14:29:49.204Z,99005.59
2018-06-15T14:32:18.583Z,98995.59
2018-06-15T14:34:47.944Z,98998.89
2018-06-15T14:37:17.289Z,98995.04
2018-06-15T14:39:46.697Z,98992.25
2018-06-15T14:42:16.209Z,98995.62
2018-06-15T14:44:45.556Z,99004.38
2018-06-15T14:47:14.912Z,98992.39
2018-06-15T14:49:44.651Z,98985.28
2018-06-15T14:52:13.992Z,98986.86
2018-06-15T14:54:43.438Z,98983.70
2018-06-15T14:57:13.001Z,98980.93
2018-06-15T14:59:42.612Z,98975.56
2018-06-15T15:02:12.630Z,98980.59
2018-06-15T15:04:42.060Z,98984.48
2018-06-15T15:07:11.431Z,98978.91
2018-06-15T15:09:41.054Z,98983.34
2018-06-15T15:12:10.669Z,98976.47
2018-06-15T15:14:40.287Z,98981.34
2018-06-15T15:17:09.905Z,98977.38
2018-06-15T15:19:39.269Z,98969.99
2018-06-15T15:22:08.650Z,98963.02
2018-06-15T15:24:38.109Z,98969.65
2018-06-15T15:27:07.481Z,98965.14
2018-06-15T15:29:37.026Z,98966.50
2018-06-15T15:32:06.895Z,98966.25
2018-06-15T15:34:39.640Z,98964.42
2018-06-15T15:37:09.230Z,98962.42
2018-06-15T15:39:38.781Z,98952.13
2018-06-15T15:42:08.448Z,98964.05
2018-06-15T15:44:37.947Z,98959.34
2018-06-15T15:47:07.265Z,98951.78
2018-06-15T15:49:36.916Z,98943.19
2018-06-15T15:52:06.273Z,98951.84
2018-06-15T15:54:35.829Z,98960.94
2018-06-15T15:57:05.608Z,98950.05
2018-06-15T15:59:35.034Z,98951.18
2018-06-15T16:02:04.431Z,98953.11
2018-06-15T16:04:34.014Z,98958.16
2018-06-15T16:07:03.596Z,98909.38
2018-06-15T16:09:32.932Z,98963.32
2018-06-15T16:12:02.358Z,98953.67
2018-06-15T16:14:31.776Z,98946.97
2018-06-15T16:17:01.154Z,98950.23
2018-06-15T16:19:30.490Z,98945.62
2018-06-15T16:21:59.996Z,98948.16
2018-06-15T16:24:29.609Z,98948.00
2018-06-15T16:26:58.960Z,98947.84
2018-06-15T16:29:28.644Z,98941.59
2018-06-15T16:31:58.361Z,98914.60
2018-06-15T16:34:27.700Z,98936.17
2018-06-15T16:36:57.353Z,98938.77
2018-06-15T16:39:26.963Z,98939.13
2018-06-15T16:41:56.544Z,98939.16
2018-06-15T16:44:25.912Z,98939.49
2018-06-15T16:46:55.476Z,98930.67
2018-06-15T16:49:25.105Z,98939.25
2018-06-15T16:51:54.524Z,98945.91
2018-06-15T16:54:24.176Z,98933.97
2018-06-15T16:56:53.600Z,98937.03
2018-06-15T16:59:22.952Z,98936.83
2018-06-15T17:01:52.529Z,98939.86
2018-06-15T17:04:22.063Z,98935.75
2018-06-15T17:06:51.445Z,98939.05
2018-06-15T17:09:21.028Z,98935.98
2018-06-15T17:11:50.612Z,98946.63
2018-06-15T17:14:19.996Z,98937.42
2018-06-15T17:16:49.374Z,98940.55
2018-06-15T17:19:18.832Z,98941.41
2018-06-15T17:21:48.193Z,98946.81
2018-06-15T17:24:17.987Z,98943.48
2018-06-15T17:26:47.604Z,98914.81
2018-06-15T17:29:16.965Z,98940.87
2018-06-15T17:31:46.321Z,98944.48
2018-06-15T17:34:16.307Z,98946.81
2018-06-15T17:36:46.320Z,98950.84
2018-06-15T17:39:15.825Z,98947.47
2018-06-15T17:41:45.860Z,98957.00
2018-06-15T17:44:15.213Z,98958.15
2018-06-15T17:46:45.128Z,98953.20
2018-06-15T17:49:14.721Z,98954.13
2018-06-15T17:51:44.612Z,98957.59
2018-06-15T17:54:14.004Z,98961.06
2018-06-15T17:56:43.544Z,98959.91
2018-06-15T17:59:13.176Z,98952.42
2018-06-15T18:01:42.550Z,98961.12
2018-06-15T18:04:12.121Z,98954.15
2018-06-15T18:06:41.684Z,98964.73
2018-06-15T18:09:11.750Z,98956.48
2018-06-15T18:11:44.298Z,98965.00
2018-06-15T18:14:13.661Z,98962.39
2018-06-15T18:16:43.008Z,98965.23
2018-06-15T18:19:12.348Z,98965.61
2018-06-15T18:21:41.678Z,98971.09
2018-06-15T18:24:11.130Z,98974.06
2018-06-15T18:26:40.516Z,98827.34
2018-06-15T18:29:10.016Z,98973.98
2018-06-15T18:31:39.542Z,98944.95
2018-06-15T18:34:09.173Z,98974.13
2018-06-15T18:36:38.832Z,98968.27
2018-06-15T18:39:11.214Z,98987.56
2018-06-15T18:41:40.564Z,98988.91
2018-06-15T18:44:10.386Z,98987.01
2018-06-15T18:46:39.829Z,98985.59
2018-06-15T18:49:09.284Z,98988.62
2018-06-15T18:51:38.656Z,98985.73
2018-06-15T18:54:08.124Z,99001.58
2018-06-15T18:56:37.512Z,98989.74
2018-06-15T18:59:06.882Z,98992.16
2018-06-15T19:01:36.461Z,98995.05
2018-06-15T19:04:06.284Z,99000.31
2018-06-15T19:06:35.852Z,98995.14
2018-06-15T19:09:07.804Z,98999.67
2018-06-15T19:11:37.334Z,99007.48
2018-06-15T19:14:06.871Z,98997.03
2018-06-15T19:16:36.265Z,99001.40
2018-06-15T19:19:05.998Z,99007.05
2018-06-15T19:21:35.737Z,99006.41
2018-06-15T19:24:05.439Z,99008.04
2018-06-15T19:26:34.850Z,99008.30
2018-06-15T19:29:04.456Z,99012.57
2018-06-15T19:31:33.904Z,99011.83
2018-06-15T19:34:03.283Z,99020.42
2018-06-15T19:36:32.700Z,99011.32
2018-06-15T19:39:02.440Z,99012.19
2018-06-15T19:41:32.050Z,99022.33
2018-06-15T19:44:01.728Z,99019.78
2018-06-15T19:46:31.239Z,99023.58
2018-06-15T19:49:00.628Z,99026.11
2018-06-15T19:51:30.277Z,99018.25
2018-06-15T19:53:59.640Z,99020.58
2018-06-15T19:56:29.268Z,99022.69
2018-06-15T19:58:58.668Z,99019.09
2018-06-15T20:01:28.547Z,99017.16
2018-06-15T20:03:57.903Z,99022.72
2018-06-15T20:06:27.540Z,98990.68
2018-06-15T20:08:57.598Z,99024.58
2018-06-15T20:11:26.947Z,99028.04
2018-06-15T20:13:56.388Z,99025.45
2018-06-15T20:16:25.745Z,99032.58
2018-06-15T20:18:55.262Z,99029.17
2018-06-15T20:21:25.090Z,99022.43
2018-06-15T20:23:54.427Z,99026.92
2018-06-15T20:26:23.802Z,99027.25
2018-06-15T20:28:53.154Z,99022.25
2018-06-15T20:31:22.665Z,99042.05
2018-06-15T20:33:52.292Z,99026.06
2018-06-15T20:36:21.868Z,98923.76
2018-06-15T20:38:51.572Z,99026.70
2018-06-15T20:41:21.126Z,99031.96
2018-06-15T20:43:50.716Z,99031.73
2018-06-15T20:46:20.978Z,99041.61
2018-06-15T20:48:50.573Z,99038.94
2018-06-15T20:51:20.017Z,99037.95
2018-06-15T20:53:49.989Z,99042.25
2018-06-15T20:56:19.709Z,99041.87
2018-06-15T20:58:49.280Z,99041.64
2018-06-15T21:01:18.904Z,99043.97
2018-06-15T21:03:48.274Z,99042.03
2018-06-15T21:06:17.630Z,99046.04
2018-06-15T21:08:47.081Z,99056.16
2018-06-15T21:11:17.356Z,99047.82
2018-06-15T21:13:46.709Z,99052.53
2018-06-15T21:16:16.223Z,99053.11
2018-06-15T21:18:45.544Z,99050.72
2018-06-15T21:21:15.135Z,99054.16
2018-06-15T21:23:44.728Z,99055.72
2018-06-15T21:26:14.073Z,99062.41
2018-06-15T21:28:43.655Z,99059.95
2018-06-15T21:31:12.989Z,99059.86
2018-06-15T21:33:42.560Z,99060.84
2018-06-15T21:36:12.167Z,99063.36
2018-06-15T21:38:41.771Z,99059.34
2018-06-15T21:41:11.512Z,99066.47
2018-06-15T21:43:41.252Z,99072.33
2018-06-15T21:46:10.916Z,99066.98
2018-06-15T21:48:40.268Z,99075.60
2018-06-15T21:51:10.735Z,99075.53
2018-06-15T21:53:40.092Z,99073.11
2018-06-15T21:56:10.050Z,99073.23
2018-06-15T21:58:39.576Z,99073.64
2018-06-15T22:01:08.970Z,99073.99
2018-06-15T22:03:38.470Z,99069.75
2018-06-15T22:06:08.079Z,99065.63
2018-06-15T22:08:37.721Z,99067.20
2018-06-15T22:11:07.089Z,99063.42
2018-06-15T22:13:36.596Z,99062.14
2018-06-15T22:16:07.140Z,99067.73
2018-06-15T22:18:36.481Z,99066.75
2018-06-15T22:21:06.085Z,99067.20
2018-06-15T22:23:35.464Z,99068.72
2018-06-15T22:26:05.114Z,99075.41
2018-06-15T22:28:34.669Z,99072.50
2018-06-15T22:31:04.241Z,99077.09
2018-06-15T22:33:33.771Z,99071.05
2018-06-15T22:36:03.254Z,99071.74
2018-06-15T22:38:32.749Z,99076.49
2018-06-15T22:41:02.093Z,99076.97
2018-06-15T22:43:31.497Z,99081.20
2018-06-15T22:46:00.930Z,99079.52
2018-06-15T22:48:30.311Z,99079.52
2018-06-15T22:50:59.902Z,99075.86
2018-06-15T22:53:30.131Z,99074.17
2018-06-15T22:55:59.636Z,99072.73
2018-06-15T22:58:29.054Z,99075.75
2018-06-15T23:00:58.417Z,99072.73
2018-06-15T23:03:27.856Z,99078.30
2018-06-15T23:05:57.405Z,99065.41
2018-06-15T23:08:27.310Z,99072.09
2018-06-15T23:10:57.250Z,99070.16
2018-06-15T23:13:26.908Z,99068.55
2018-06-15T23:15:56.505Z,99069.81
2018-06-15T23:18:26.358Z,99043.30
2018-06-15T23:20:55.699Z,99071.15
2018-06-15T23:23:25.292Z,99071.05
2018-06-15T23:25:55.697Z,99065.94
2018-06-15T23:28:25.183Z,99060.59
2018-06-15T23:30:54.552Z,99055.37
2018-06-15T23:33:23.907Z,99051.30
2018-06-15T23:35:53.358Z,99057.22
2018-06-15T23:38:22.750Z,99047.06
2018-06-15T23:40:52.126Z,99045.22
2018-06-15T23:43:22.513Z,99046.55
2018-06-15T23:45:52.111Z,99045.84
2018-06-15T23:48:21.459Z,99046.25
2018-06-15T23:50:50.799Z,99045.27
2018-06-15T23:53:20.285Z,99048.92
2018-06-15T23:55:49.927Z,99045.87
2018-06-15T23:58:19.484Z,99042.49
